Používaním stránok prevádzkovaných PROFIPILOT, s.r.o. súhlasíte s používaním cookies, ktoré nám pomáhajú zabezpečiť lepšie služby.OK

Briefing

MAPA | METAR | TAF | METEO SITUÁCIA
MAPA | METAR | TAF | METEO SITUÁCIA

Predpoveď na dnes

NOC: Polooblačno až oblačno. Spočiatku miestami prehánky alebo dážď, ojedinele aj búrky. Nad ránom ojedinele hmla. Najnižšia nočná teplota 15 až 10 st, ojedinele chladnejšie. Prevažne slabý vietor, ktorý pri búrkach prechodne zosilnie. DEŇ: Polooblačno až oblačno, prechodne až zamračené. Postupne na mnohých miestach prehánky, miestami aj búrky, ktoré môžu byť intenzívne. Najvyššia teplota 25 až 30, v Žilinskom kraji, na Spiši a na Horehroní zväčša 22 až 25 st. Teplota na horách vo výške 1500 m okolo 13 st. Prevažne slabý vietor, pri búrkach prechodne zosilnie. Predpokladané množstvo zrážok: NOC: do 8 mm, pri búrkach ojedinele okolo 20 mm. DEŇ: do 7 mm, pri búrkach ojedinele okolo 20 mm.

SHMÚ, OMPaV, JA 25.5.2018 20:29 LSEČ

MAPA | METAR | TAF | METEO SITUÁCIA

TAF - Letisková predpoveď

25.05.2018 - 17:00 UTC (Včera)

TAF LZIB 251700Z 2518/2618 VRB02KT CAVOK
     PROB30 TEMPO 2518/2520 SHRA FEW040CB BKN045
     BECMG 2520/2522 4000 BR SCT005
     PROB30 TEMPO 2523/2606 0400 FG BKN003
     BECMG 2608/2610 14006KT 9999 SCT040 BKN060
     PROB30 TEMPO 2614/2618 34015KT 2000 TSRA SCT012 SCT035CB BKN040=
 TAF LZKZ 251700Z 2518/2618 02006KT 9999 FEW045 SCT080
     TEMPO 2518/2522 -SHRA SCT040TCU BKN060
     PROB30 TEMPO 2518/2520 01016KT 4000 -TSRA FEW025 SCT035CB BKN040
     PROB30 TEMPO 2612/2618 14005KT 5000 -TSRA SCT040CB BKN050=
 TAF LZTT 251700Z 2518/2618 06006KT 9999 FEW030 BKN070
     PROB40 TEMPO 2518/2602 -SHRA BKN030 FEW035CB
     BECMG 2520/2522 VRB02KT 5000 MIFG SCT010
     PROB30 2523/2606 0800 FG BKN002
     BECMG 2608/2610 08006KT 9999 SCT030 BKN070=
 

25.05.2018 - 08:00 UTC (Včera)

TAF LZSL 250800Z 2509/2518 34004KT 9999 FEW025 BKN100
     TEMPO 2509/2518 4000 SHRA SCT005 BKN020 FEW030CB
     PROB40 TEMPO 2509/2514 TSRA BKN025 SCT030CB=
 TAF LZPP 250800Z 2509/2518 04008KT 9999 FEW035 BKN080
     TEMPO 2509/2518 SHRA BKN035 FEW040CB
     TEMPO 2509/2511 4000 TSRA BKN030 SCT035CB
     BECMG 2510/2512 11004KT=
 TAF LZZI 250800Z 2509/2518 VRB02KT CAVOK
     BECMG 2509/2510 12004KT 9999 SCT045 SCT100=
 
MAPA | METAR | TAF | METEO SITUÁCIA

METAR - Letisková meteo správa

Letisková meteorologická správa METAR

Meteorologické informácie z ďalších profesionálnych meteorologických staníc SHMÚ zobrazené v tvare zodpovedajúcom pravidlám kódovania správ METAR sú uvedené v položke „METSYN Informácie o správe METAR

26.05.2018 - 00:00 UTC

METAR LZIB 260000Z 30002KT 9999 MIFG NSC 15/13 Q1020=
 METAR LZKZ 260000Z 08004KT CAVOK 14/13 Q1020=
 METAR LZPP 260000Z AUTO 35003KT 5000 BR NCD 13/12 Q1020=
 METAR LZSL 260000Z 00000KT 0100 R36/1600D FG OVC001 13/12 Q1021=
 METAR LZTT 260000Z 27005KT 9999 3000E BCFG FEW002 BKN086 12/12
 Q1021=
 METAR LZZI 260000Z 04005KT 9999 OVC004 14/13 Q1021=
 

25.05.2018 - 23:30 UTC

METAR LZIB 252330Z 35002KT 9999 MIFG NSC 15/14 Q1020=
 METAR LZKZ 252330Z 13003KT CAVOK 14/13 Q1020=
 METAR LZPP 252330Z AUTO VRB01KT 5000 BR NCD 13/13 Q1020=
 METAR LZSL 252330Z 00000KT 0100 R36/1700U FG BKN001 13/12 Q1021=
 METAR LZTT 252330Z VRB02KT 9999 1500E R27/1400U BCFG FEW030 BKN086
 12/12 Q1021=
 METAR LZZI 252330Z 07005KT 050V110 9999 BKN005 14/13 Q1021=
 
Údaje nie sú momentálne k dispozícii
načítavam...